createdAt,value
2023-06-04T20:30:24.481Z,49.06
2023-06-04T20:32:50.870Z,48.77
2023-06-04T20:35:17.272Z,48.86
2023-06-04T20:37:43.708Z,48.86
2023-06-04T20:40:10.049Z,48.91
2023-06-04T20:42:36.417Z,49.02
2023-06-04T20:45:02.774Z,48.75
2023-06-04T20:47:29.157Z,48.40
2023-06-04T20:49:55.538Z,48.20
2023-06-04T20:52:21.893Z,48.45
2023-06-04T20:54:48.261Z,48.13
2023-06-04T20:57:14.630Z,47.76
2023-06-04T20:59:40.988Z,48.03
2023-06-04T21:02:07.373Z,47.70
2023-06-04T21:04:33.783Z,47.50
2023-06-04T21:07:00.139Z,47.20
2023-06-04T21:09:26.500Z,47.67
2023-06-04T21:11:52.871Z,47.32
2023-06-04T21:14:19.210Z,47.70
2023-06-04T21:16:45.596Z,47.71
2023-06-04T21:19:11.997Z,47.77
2023-06-04T21:21:38.331Z,47.91
2023-06-04T21:24:04.780Z,48.10
2023-06-04T21:26:31.245Z,48.39
2023-06-04T21:28:57.586Z,48.19
2023-06-04T21:31:23.963Z,48.93
2023-06-04T21:33:50.345Z,49.05
2023-06-04T21:36:16.687Z,48.51
2023-06-04T21:38:43.027Z,48.35
2023-06-04T21:41:09.614Z,48.71
2023-06-04T21:43:35.987Z,48.92
2023-06-04T21:46:02.701Z,48.62
2023-06-04T21:48:29.119Z,48.33
2023-06-04T21:50:55.467Z,48.72
2023-06-04T21:53:21.812Z,49.37
2023-06-04T21:55:48.168Z,48.42
2023-06-04T21:58:14.504Z,49.71
2023-06-04T22:00:40.851Z,50.35
2023-06-04T22:03:07.386Z,50.65
2023-06-04T22:05:33.782Z,50.56
2023-06-04T22:08:00.119Z,51.00
2023-06-04T22:10:26.511Z,51.00
2023-06-04T22:12:52.859Z,51.07
2023-06-04T22:15:19.220Z,51.26
2023-06-04T22:17:45.659Z,52.41
2023-06-04T22:20:12.024Z,52.32
2023-06-04T22:22:38.366Z,52.56
2023-06-04T22:25:04.751Z,52.00
2023-06-04T22:27:31.099Z,51.56
2023-06-04T22:29:57.459Z,51.57
2023-06-04T22:32:23.836Z,51.22
2023-06-04T22:34:50.198Z,51.45
2023-06-04T22:37:16.543Z,51.33
2023-06-04T22:39:42.930Z,51.23
2023-06-04T22:42:09.281Z,51.02
2023-06-04T22:44:35.638Z,50.24
2023-06-04T22:47:02.101Z,50.14
2023-06-04T22:49:28.508Z,50.18
2023-06-04T22:51:54.951Z,49.53
2023-06-04T22:54:21.361Z,50.15
2023-06-04T22:56:47.702Z,50.48
2023-06-04T22:59:14.042Z,49.94
2023-06-04T23:01:40.405Z,50.85
2023-06-04T23:04:06.920Z,50.94
2023-06-04T23:06:33.370Z,51.62
2023-06-04T23:08:59.748Z,52.22
2023-06-04T23:11:26.085Z,52.14
2023-06-04T23:13:52.434Z,51.08
2023-06-04T23:16:18.819Z,50.87
2023-06-04T23:18:45.205Z,50.51
2023-06-04T23:21:11.566Z,50.21
2023-06-04T23:23:37.943Z,50.86
2023-06-04T23:26:04.326Z,50.69
2023-06-04T23:28:30.690Z,50.82
2023-06-04T23:30:57.051Z,50.51
2023-06-04T23:33:23.419Z,50.75
2023-06-04T23:35:49.766Z,49.99
2023-06-04T23:38:16.156Z,51.51
2023-06-04T23:40:42.511Z,52.20
2023-06-04T23:43:08.874Z,52.28
2023-06-04T23:45:35.249Z,50.98
2023-06-04T23:48:01.678Z,51.42
2023-06-04T23:50:28.052Z,52.01
2023-06-04T23:52:54.468Z,52.34
2023-06-04T23:55:20.815Z,52.68
2023-06-04T23:57:47.169Z,52.90
